Time;durP1;ratioP1;P1;durP2;ratioP2;P2;SDS_P1;SDS_P2;PMS_P1;PMS_P2;Temp;Humidity;BMP_temperature;BMP_pressure;BME280_temperature;BME280_humidity;BME280_pressure;Samples;Min_cycle;Max_cycle;Signal;HPM_P1;HPM_P2
2023/09/10 00:00:35;;;;;;;7.22;6.72;;;17.20;99.90;;;;;;4983860;28;20196;-87
2023/09/10 00:03:01;;;;;;;6.60;6.15;;;17.10;99.90;;;;;;4962601;28;20053;-87
2023/09/10 00:05:26;;;;;;;6.97;6.50;;;17.10;99.90;;;;;;4984029;28;20565;-87
2023/09/10 00:07:53;;;;;;;7.07;6.57;;;17.20;99.90;;;;;;4986105;28;20140;-86
2023/09/10 00:10:18;;;;;;;6.70;6.22;;;17.20;99.90;;;;;;4983368;28;20080;-86
2023/09/10 00:12:44;;;;;;;7.20;6.70;;;17.20;99.90;;;;;;4967852;28;20042;-86
2023/09/10 00:15:10;;;;;;;6.57;6.13;;;17.10;99.90;;;;;;4984771;28;20084;-86
2023/09/10 00:17:36;;;;;;;6.07;5.68;;;17.30;99.90;;;;;;4986778;28;20052;-85
2023/09/10 00:20:01;;;;;;;6.05;5.65;;;17.30;99.90;;;;;;4970669;28;20132;-85
2023/09/10 00:22:27;;;;;;;6.97;6.47;;;17.10;99.90;;;;;;4985401;28;20052;-85
2023/09/10 00:24:53;;;;;;;6.05;5.65;;;17.10;99.90;;;;;;4968804;28;20754;-86
2023/09/10 00:27:18;;;;;;;6.60;6.18;;;17.20;99.90;;;;;;4999373;28;20077;-85
2023/09/10 00:29:44;;;;;;;6.60;6.15;;;17.20;99.90;;;;;;4996827;28;20046;-86
2023/09/10 00:32:10;;;;;;;5.13;4.82;;;17.10;99.90;;;;;;4992523;28;20108;-86
2023/09/10 00:34:35;;;;;;;6.10;5.70;;;17.00;99.90;;;;;;4987775;28;20504;-86
2023/09/10 00:37:01;;;;;;;6.30;5.90;;;17.00;99.90;;;;;;4989291;28;20049;-86
2023/09/10 00:39:27;;;;;;;6.35;5.95;;;17.10;99.90;;;;;;4973638;28;20046;-86
2023/09/10 00:41:54;;;;;;;6.32;5.93;;;17.10;99.90;;;;;;4989704;28;20078;-86
2023/09/10 00:44:23;;;;;;;6.60;6.15;;;16.90;99.90;;;;;;4988950;28;20061;-87
2023/09/10 00:46:50;;;;;;;6.93;6.43;;;16.90;99.90;;;;;;4971328;28;20141;-86
2023/09/10 00:49:17;;;;;;;6.85;6.35;;;17.00;99.90;;;;;;4972061;28;20046;-85
2023/09/10 00:51:43;;;;;;;7.05;6.55;;;17.00;99.90;;;;;;4991481;28;20046;-86
2023/09/10 00:54:10;;;;;;;6.80;6.30;;;16.80;99.90;;;;;;4995390;28;20188;-85
2023/09/10 00:56:36;;;;;;;5.63;5.22;;;16.70;99.90;;;;;;4990100;28;20050;-85
2023/09/10 00:59:02;;;;;;;6.80;6.30;;;16.80;99.90;;;;;;4989110;28;20480;-86
2023/09/10 01:01:28;;;;;;;7.00;6.50;;;16.80;99.90;;;;;;4969372;28;20053;-86
2023/09/10 01:03:54;;;;;;;7.15;6.65;;;16.80;99.90;;;;;;4986982;28;20569;-86
2023/09/10 01:06:21;;;;;;;7.00;6.50;;;16.80;99.90;;;;;;4985921;28;20051;-86
2023/09/10 01:08:48;;;;;;;7.13;6.63;;;16.80;99.90;;;;;;4988318;28;20126;-87
2023/09/10 01:11:25;;;;;;;7.10;6.60;;;17.00;99.90;;;;;;4973087;28;20038;-86
2023/09/10 01:14:06;;;;;;;6.88;6.38;;;16.80;99.90;;;;;;4990436;28;20085;-85
2023/09/10 01:16:43;;;;;;;7.30;6.80;;;16.80;99.90;;;;;;4988261;28;20549;-85
2023/09/10 01:19:48;;;;;;;6.80;6.30;;;16.80;99.90;;;;;;4999699;28;20157;-85
2023/09/10 01:22:16;;;;;;;;;;;16.70;99.90;;;;;;4991092;28;20510;-86
2023/09/10 01:24:51;;;;;;;7.60;7.10;;;16.60;99.90;;;;;;4982596;28;20561;-86
2023/09/10 01:27:20;;;;;;;4.90;4.60;;;16.50;99.90;;;;;;4974516;28;20080;-85
2023/09/10 01:29:46;;;;;;;3.95;3.72;;;16.50;99.90;;;;;;4985709;28;20039;-85
2023/09/10 01:32:23;;;;;;;3.38;3.17;;;16.70;99.90;;;;;;4988826;28;20161;-86
2023/09/10 01:34:58;;;;;;;3.22;3.03;;;16.60;99.90;;;;;;4986797;28;20042;-85
2023/09/10 01:37:37;;;;;;;3.10;2.90;;;16.70;99.90;;;;;;4983597;28;20046;-87
2023/09/10 01:40:13;;;;;;;2.97;2.78;;;16.60;99.90;;;;;;4986335;28;20430;-85
2023/09/10 01:43:02;;;;;;;3.10;2.90;;;16.60;99.90;;;;;;5004179;28;20566;-86
2023/09/10 01:45:37;;;;;;;3.22;3.03;;;16.50;99.90;;;;;;4984811;28;20109;-86
2023/09/10 01:48:04;;;;;;;3.00;2.80;;;16.40;99.90;;;;;;4986775;28;20045;-86
2023/09/10 01:50:30;;;;;;;3.08;2.88;;;16.50;99.90;;;;;;4986023;28;20645;-86
2023/09/10 01:53:02;;;;;;;2.97;2.78;;;16.50;99.90;;;;;;4983829;28;20049;-85
2023/09/10 01:55:30;;;;;;;3.00;2.80;;;16.60;99.90;;;;;;4985843;28;20549;-85
2023/09/10 01:57:58;;;;;;;2.78;2.60;;;16.60;99.90;;;;;;4972836;28;20049;-85
2023/09/10 02:00:34;;;;;;;2.50;2.40;;;16.70;99.90;;;;;;4969768;28;20053;-85
2023/09/10 02:03:05;;;;;;;2.47;2.38;;;16.60;99.90;;;;;;4988192;28;20530;-85
2023/09/10 02:05:34;;;;;;;1.77;1.67;;;16.80;99.90;;;;;;4987859;28;20086;-86
2023/09/10 02:08:03;;;;;;;1.88;1.77;;;16.70;99.90;;;;;;4984803;28;20042;-85
2023/09/10 02:10:29;;;;;;;1.92;1.83;;;16.70;99.90;;;;;;4984821;28;20177;-85
2023/09/10 02:13:11;;;;;;;1.92;1.83;;;16.60;99.90;;;;;;4990042;28;20145;-86
2023/09/10 02:15:42;;;;;;;1.92;1.83;;;16.60;99.90;;;;;;4968168;28;20077;-85
2023/09/10 02:18:31;;;;;;;1.85;1.75;;;16.60;99.90;;;;;;4990058;28;20045;-86
2023/09/10 02:21:12;;;;;;;1.85;1.75;;;16.40;99.90;;;;;;4978392;28;20439;-85
2023/09/10 02:23:45;;;;;;;1.70;1.60;;;16.50;99.90;;;;;;4987222;28;20057;-86
2023/09/10 02:26:22;;;;;;;1.67;1.58;;;16.40;99.90;;;;;;4986566;28;20081;-86
2023/09/10 02:28:51;;;;;;;1.65;1.55;;;16.40;99.90;;;;;;4987804;28;20049;-85
2023/09/10 02:31:20;;;;;;;1.58;1.48;;;16.40;99.90;;;;;;4971572;28;20042;-84
2023/09/10 02:33:46;;;;;;;1.55;1.45;;;16.50;99.90;;;;;;4985914;28;20064;-85
2023/09/10 02:36:12;;;;;;;1.63;1.52;;;16.50;99.90;;;;;;4988349;28;20620;-85
2023/09/10 02:38:40;;;;;;;1.45;1.38;;;16.40;99.90;;;;;;4987566;28;20053;-85
2023/09/10 02:41:06;;;;;;;1.48;1.40;;;16.40;99.90;;;;;;4988567;28;20038;-85
2023/09/10 02:43:31;;;;;;;1.40;1.35;;;16.30;99.90;;;;;;4984118;28;21032;-85
2023/09/10 02:46:04;;;;;;;1.30;1.30;;;16.30;99.90;;;;;;4987884;28;20153;-85
2023/09/10 02:48:30;;;;;;;1.50;1.40;;;16.40;99.90;;;;;;4987326;28;20060;-84
2023/09/10 02:50:56;;;;;;;1.65;1.55;;;16.30;99.90;;;;;;4990969;28;20667;-85
2023/09/10 02:53:22;;;;;;;1.30;1.30;;;16.40;99.90;;;;;;4992833;28;20053;-84
2023/09/10 02:56:03;;;;;;;1.27;1.27;;;16.40;99.90;;;;;;4988059;28;20104;-84
2023/09/10 02:58:29;;;;;;;1.30;1.30;;;16.40;99.90;;;;;;4968860;28;20053;-84
2023/09/10 03:01:01;;;;;;;1.50;1.40;;;16.50;99.90;;;;;;4985665;28;20046;-84
2023/09/10 03:03:27;;;;;;;1.20;1.20;;;16.40;99.90;;;;;;4988446;28;20041;-84
2023/09/10 03:05:53;;;;;;;1.30;1.30;;;16.40;99.90;;;;;;4972054;28;20048;-83
2023/09/10 03:08:18;;;;;;;1.23;1.23;;;16.30;99.90;;;;;;4990736;28;20112;-84
2023/09/10 03:10:44;;;;;;;1.30;1.30;;;16.10;99.90;;;;;;4986079;28;20052;-84
2023/09/10 03:13:10;;;;;;;1.20;1.20;;;16.30;99.90;;;;;;4986063;28;20633;-83
2023/09/10 03:15:35;;;;;;;1.13;1.13;;;16.20;99.90;;;;;;4986568;28;20096;-83
2023/09/10 03:18:01;;;;;;;1.15;1.15;;;16.20;99.90;;;;;;4985655;28;20045;-84
2023/09/10 03:20:26;;;;;;;1.20;1.20;;;16.10;99.90;;;;;;4983495;28;20616;-84
2023/09/10 03:22:57;;;;;;;1.20;1.20;;;16.10;99.90;;;;;;4985554;28;20048;-84
2023/09/10 03:25:23;;;;;;;1.10;1.10;;;16.20;99.90;;;;;;4985590;28;20080;-83
2023/09/10 03:27:49;;;;;;;1.10;1.10;;;16.10;99.90;;;;;;4988282;28;20073;-84
2023/09/10 03:30:16;;;;;;;1.20;1.20;;;16.00;99.90;;;;;;4984826;28;20076;-83
2023/09/10 03:32:42;;;;;;;1.20;1.20;;;16.10;99.90;;;;;;4984877;28;20058;-83
2023/09/10 03:35:08;;;;;;;1.25;1.25;;;16.20;99.90;;;;;;4984716;28;20050;-82
2023/09/10 03:37:33;;;;;;;1.20;1.20;;;16.20;99.90;;;;;;4983902;28;20056;-84
2023/09/10 03:39:59;;;;;;;1.20;1.20;;;16.20;99.90;;;;;;4985092;28;20038;-84
2023/09/10 03:42:25;;;;;;;1.23;1.23;;;16.20;99.90;;;;;;4986314;28;20100;-84
2023/09/10 03:44:50;;;;;;;1.20;1.20;;;16.20;99.90;;;;;;4982963;28;20054;-84
2023/09/10 03:47:16;;;;;;;1.30;1.30;;;16.10;99.90;;;;;;4985686;28;20523;-84
2023/09/10 03:49:42;;;;;;;1.20;1.20;;;16.20;99.90;;;;;;4984016;28;20152;-85
2023/09/10 03:52:21;;;;;;;1.20;1.20;;;16.20;99.90;;;;;;4989910;28;20045;-84
2023/09/10 03:54:47;;;;;;;1.30;1.30;;;16.10;99.90;;;;;;4970134;28;20132;-84
2023/09/10 03:57:14;;;;;;;1.30;1.30;;;16.10;99.90;;;;;;4982297;28;20046;-83
2023/09/10 03:59:40;;;;;;;1.20;1.20;;;16.10;99.90;;;;;;4994259;28;20060;-85
2023/09/10 04:02:05;;;;;;;1.23;1.23;;;16.00;99.90;;;;;;4974389;28;20564;-84
2023/09/10 04:04:35;;;;;;;1.20;1.20;;;16.00;99.90;;;;;;4992868;28;20057;-84
2023/09/10 04:07:03;;;;;;;1.30;1.30;;;16.00;99.90;;;;;;4990633;28;20117;-84
2023/09/10 04:09:30;;;;;;;1.30;1.30;;;16.00;99.90;;;;;;4989832;28;20125;-85
2023/09/10 04:11:57;;;;;;;1.30;1.30;;;16.10;99.90;;;;;;4988821;28;20061;-84
2023/09/10 04:14:23;;;;;;;1.30;1.30;;;16.00;99.90;;;;;;4993135;28;20046;-84
2023/09/10 04:16:49;;;;;;;1.30;1.30;;;15.90;99.90;;;;;;4987627;28;20060;-83
2023/09/10 04:19:15;;;;;;;1.30;1.30;;;16.10;99.90;;;;;;4988395;28;20046;-83
2023/09/10 04:21:40;;;;;;;1.30;1.30;;;15.90;99.90;;;;;;4985219;28;20081;-83
2023/09/10 04:24:06;;;;;;;1.30;1.30;;;15.80;99.90;;;;;;4988566;28;20061;-84
2023/09/10 04:26:32;;;;;;;1.30;1.30;;;15.90;99.90;;;;;;4988725;28;20056;-84
2023/09/10 04:28:58;;;;;;;1.40;1.38;;;15.90;99.90;;;;;;4989906;28;20116;-83
2023/09/10 04:31:23;;;;;;;1.58;1.48;;;15.80;99.90;;;;;;4987840;28;20625;-84
2023/09/10 04:33:52;;;;;;;1.50;1.40;;;15.80;99.90;;;;;;5010465;28;20050;-83
2023/09/10 04:36:18;;;;;;;1.50;1.40;;;16.10;99.90;;;;;;5010372;28;20068;-83
2023/09/10 04:38:43;;;;;;;1.50;1.40;;;15.90;99.90;;;;;;4988003;28;20034;-84
2023/09/10 04:41:09;;;;;;;1.30;1.30;;;15.80;99.90;;;;;;4988734;28;20046;-84
2023/09/10 04:43:37;;;;;;;1.30;1.30;;;15.70;99.90;;;;;;4994468;28;20041;-86
2023/09/10 04:46:03;;;;;;;1.35;1.35;;;16.00;99.90;;;;;;4975096;28;20056;-84
2023/09/10 04:48:29;;;;;;;1.35;1.35;;;15.90;99.90;;;;;;4990150;28;20041;-84
2023/09/10 04:50:57;;;;;;;1.50;1.40;;;16.00;99.90;;;;;;4989346;28;20123;-84
2023/09/10 04:53:22;;;;;;;1.48;1.38;;;16.00;99.90;;;;;;4992700;28;20042;-85
2023/09/10 04:55:53;;;;;;;1.50;1.40;;;16.00;99.90;;;;;;4987771;28;20046;-85
2023/09/10 04:58:19;;;;;;;1.45;1.38;;;15.90;99.90;;;;;;4989973;28;20054;-85
2023/09/10 05:00:56;;;;;;;1.30;1.30;;;15.90;99.90;;;;;;4990624;28;20164;-85
2023/09/10 05:03:28;;;;;;;1.35;1.35;;;16.00;99.90;;;;;;4999742;28;20486;-84
2023/09/10 05:06:07;;;;;;;1.40;1.38;;;16.20;99.90;;;;;;5001692;28;20140;-85
2023/09/10 05:08:33;;;;;;;1.33;1.33;;;16.10;99.90;;;;;;5007815;28;20042;-84
2023/09/10 05:10:58;;;;;;;1.45;1.38;;;16.00;99.90;;;;;;4985965;28;20060;-84
2023/09/10 05:13:24;;;;;;;1.50;1.40;;;16.10;99.90;;;;;;4989634;28;20434;-84
2023/09/10 05:15:51;;;;;;;1.35;1.35;;;16.20;99.90;;;;;;4989900;28;20445;-85
2023/09/10 05:18:19;;;;;;;1.30;1.30;;;16.10;99.90;;;;;;4987446;28;20042;-83
2023/09/10 05:20:48;;;;;;;1.42;1.38;;;16.40;99.90;;;;;;4987512;28;20054;-85
2023/09/10 05:23:13;;;;;;;1.50;1.40;;;16.40;99.90;;;;;;4987337;28;20045;-83
2023/09/10 05:25:39;;;;;;;1.60;1.50;;;16.30;99.90;;;;;;4970643;28;20054;-83
2023/09/10 05:28:05;;;;;;;1.50;1.40;;;16.50;99.90;;;;;;4988595;28;20538;-84
2023/09/10 05:30:37;;;;;;;1.50;1.40;;;16.60;99.90;;;;;;4988175;28;20123;-85
2023/09/10 05:33:03;;;;;;;1.30;1.30;;;16.50;99.90;;;;;;4987953;28;20189;-86
2023/09/10 05:35:29;;;;;;;1.30;1.30;;;16.70;99.90;;;;;;4988910;28;20077;-85
2023/09/10 05:37:54;;;;;;;1.33;1.33;;;16.80;99.90;;;;;;4990315;28;20045;-83
2023/09/10 05:40:20;;;;;;;1.52;1.42;;;16.90;99.90;;;;;;4988194;28;20062;-84
2023/09/10 05:42:46;;;;;;;1.58;1.48;;;17.20;99.90;;;;;;4990385;28;20053;-85
2023/09/10 05:45:11;;;;;;;1.42;1.38;;;17.40;99.90;;;;;;4985289;28;20049;-85
2023/09/10 05:47:55;;;;;;;1.42;1.35;;;17.60;99.90;;;;;;4983283;28;20076;-86
2023/09/10 05:50:21;;;;;;;1.50;1.42;;;17.90;99.90;;;;;;4987932;28;20049;-86
2023/09/10 05:52:50;;;;;;;1.50;1.40;;;17.70;99.90;;;;;;4973565;28;20058;-87
2023/09/10 05:55:21;;;;;;;1.60;1.50;;;17.90;99.90;;;;;;4995183;28;20605;-87
2023/09/10 05:57:55;;;;;;;1.30;1.30;;;17.60;99.90;;;;;;4971698;28;20492;-86
2023/09/10 06:00:22;;;;;;;1.30;1.30;;;17.70;99.90;;;;;;4990747;28;20423;-85
2023/09/10 06:02:51;;;;;;;1.27;1.27;;;17.70;99.90;;;;;;4990132;28;20060;-87
2023/09/10 06:05:17;;;;;;;1.23;1.23;;;17.90;99.90;;;;;;4975397;28;20053;-85
2023/09/10 06:07:43;;;;;;;1.25;1.25;;;17.90;99.90;;;;;;4987412;28;20042;-86
2023/09/10 06:10:15;;;;;;;1.40;1.30;;;18.00;99.90;;;;;;4986489;28;20050;-86
2023/09/10 06:12:53;;;;;;;1.25;1.25;;;18.00;99.90;;;;;;4984394;28;20050;-87
2023/09/10 06:15:24;;;;;;;1.20;1.20;;;18.20;99.90;;;;;;4985186;28;20460;-88
2023/09/10 06:17:50;;;;;;;1.20;1.20;;;18.30;99.90;;;;;;4970787;28;20050;-87
2023/09/10 06:20:15;;;;;;;1.30;1.30;;;18.30;99.90;;;;;;4971275;28;20562;-86
2023/09/10 06:22:41;;;;;;;1.20;1.20;;;18.40;99.90;;;;;;4971966;28;20046;-84
2023/09/10 06:25:07;;;;;;;1.10;1.10;;;18.60;99.90;;;;;;4988666;28;20202;-84
2023/09/10 06:27:33;;;;;;;1.25;1.25;;;18.70;99.90;;;;;;4984781;28;20104;-84
2023/09/10 06:29:58;;;;;;;1.27;1.27;;;18.80;99.90;;;;;;4987385;28;20962;-86
2023/09/10 06:32:24;;;;;;;1.30;1.30;;;19.00;99.90;;;;;;4999995;28;20046;-86
2023/09/10 06:34:52;;;;;;;1.38;1.38;;;18.90;99.90;;;;;;4970071;28;20048;-86
2023/09/10 06:37:21;;;;;;;1.50;1.40;;;18.90;99.90;;;;;;4973639;28;20836;-86
2023/09/10 06:39:49;;;;;;;1.50;1.40;;;19.40;99.90;;;;;;4988067;28;20123;-89
2023/09/10 06:42:15;;;;;;;1.30;1.30;;;19.40;99.90;;;;;;4987278;28;20041;-86
2023/09/10 06:44:44;;;;;;;1.50;1.40;;;19.60;99.90;;;;;;4989170;28;20137;-86
2023/09/10 06:47:13;;;;;;;1.58;1.48;;;19.70;99.90;;;;;;4988987;28;20058;-88
2023/09/10 06:49:38;;;;;;;1.30;1.30;;;19.90;99.90;;;;;;4969797;28;20100;-88
2023/09/10 06:52:09;;;;;;;1.13;1.13;;;20.20;99.90;;;;;;4971187;28;20468;-86
2023/09/10 06:54:35;;;;;;;1.23;1.23;;;20.40;99.90;;;;;;4984499;28;20479;-87
2023/09/10 06:57:04;;;;;;;1.50;1.40;;;20.60;99.90;;;;;;4974788;28;20048;-87
2023/09/10 06:59:30;;;;;;;1.73;1.63;;;20.70;99.90;;;;;;4974658;28;20050;-88
2023/09/10 07:01:56;;;;;;;1.80;1.70;;;20.60;99.90;;;;;;4974860;28;20068;-88
2023/09/10 07:04:27;;;;;;;1.60;1.50;;;21.00;99.90;;;;;;4974872;28;20057;-89
2023/09/10 07:06:55;;;;;;;1.60;1.50;;;21.10;99.90;;;;;;4984353;28;20057;-87
2023/09/10 07:09:22;;;;;;;1.60;1.50;;;21.30;99.90;;;;;;4985655;28;20064;-87
2023/09/10 07:11:52;;;;;;;1.50;1.40;;;21.30;99.90;;;;;;4989696;28;20050;-87
2023/09/10 07:14:24;;;;;;;1.70;1.60;;;21.60;99.90;;;;;;4990926;28;20332;-88
2023/09/10 07:16:56;;;;;;;1.92;1.83;;;21.50;99.90;;;;;;4974552;28;20061;-93
2023/09/10 07:19:42;;;;;;;1.50;1.40;;;21.40;99.90;;;;;;4973855;28;20050;-87
2023/09/10 07:22:13;;;;;;;1.25;1.25;;;21.60;99.90;;;;;;4985950;28;20062;-90
2023/09/10 07:24:45;;;;;;;1.85;1.75;;;21.80;99.90;;;;;;4989106;28;20065;-87
2023/09/10 07:27:10;;;;;;;2.00;1.90;;;22.00;99.90;;;;;;4985735;28;20123;-88
2023/09/10 07:29:45;;;;;;;1.98;1.88;;;22.10;99.90;;;;;;4985172;28;20088;-89
2023/09/10 07:32:11;;;;;;;1.85;1.75;;;22.40;99.90;;;;;;4968924;28;20053;-87
2023/09/10 07:34:40;;;;;;;1.85;1.75;;;22.50;99.90;;;;;;4986011;28;20046;-87
2023/09/10 07:37:08;;;;;;;1.85;1.75;;;22.50;99.90;;;;;;4988340;28;20042;-88
2023/09/10 07:39:34;;;;;;;1.88;1.77;;;22.70;99.90;;;;;;4976363;28;20140;-88
2023/09/10 07:42:06;;;;;;;1.65;1.55;;;22.80;99.90;;;;;;5005618;28;20546;-94
2023/09/10 07:44:32;;;;;;;1.70;1.60;;;23.00;99.90;;;;;;4987933;28;20050;-86
2023/09/10 07:46:57;;;;;;;1.25;1.25;;;23.20;99.90;;;;;;4989177;28;20161;-88
2023/09/10 07:49:23;;;;;;;2.03;1.92;;;23.20;99.90;;;;;;4988370;28;20045;-88
2023/09/10 07:51:49;;;;;;;1.95;1.85;;;22.70;99.90;;;;;;4981919;28;20041;-89
2023/09/10 07:54:14;;;;;;;2.22;2.13;;;22.80;99.90;;;;;;4983259;28;20488;-87
2023/09/10 07:56:40;;;;;;;2.25;2.15;;;23.00;99.90;;;;;;4965215;28;20049;-86
2023/09/10 07:59:08;;;;;;;2.15;2.05;;;23.40;99.90;;;;;;4984854;28;20389;-87
2023/09/10 08:01:36;;;;;;;2.05;1.95;;;23.50;99.90;;;;;;4965345;28;20050;-86
2023/09/10 08:04:02;;;;;;;2.78;2.63;;;23.20;99.90;;;;;;4978309;28;20050;-87
2023/09/10 08:06:28;;;;;;;2.25;2.15;;;23.40;99.90;;;;;;4967413;28;20518;-87
2023/09/10 08:08:57;;;;;;;0.47;0.47;;;23.50;99.90;;;;;;4982870;28;20065;-87
2023/09/10 08:11:22;;;;;;;2.33;2.22;;;23.70;99.90;;;;;;5002064;28;20049;-87
2023/09/10 08:13:51;;;;;;;2.58;2.45;;;23.90;99.90;;;;;;4991855;28;20526;-87
2023/09/10 08:16:20;;;;;;;0.38;0.38;;;23.90;99.90;;;;;;4987005;28;20508;-90
2023/09/10 08:19:12;;;;;;;2.03;1.92;;;24.20;99.90;;;;;;5005303;28;20103;-91
2023/09/10 08:21:42;;;;;;;1.45;1.40;;;24.50;99.90;;;;;;4975941;28;20096;-93
2023/09/10 08:24:10;;;;;;;0.30;0.30;;;24.60;99.90;;;;;;4971542;28;20050;-90
2023/09/10 08:26:54;;;;;;;0.30;0.30;;;24.80;99.90;;;;;;4975168;28;20133;-93
2023/09/10 08:29:29;;;;;;;0.35;0.35;;;24.30;99.90;;;;;;4970003;28;20442;-90
2023/09/10 08:31:56;;;;;;;2.15;2.05;;;24.20;99.90;;;;;;4975168;28;20132;-92
2023/09/10 08:34:25;;;;;;;0.32;0.32;;;24.30;99.90;;;;;;4989275;28;20413;-89
2023/09/10 08:36:54;;;;;;;0.30;0.30;;;24.60;99.90;;;;;;4971162;28;20045;-91
2023/09/10 08:39:20;;;;;;;0.30;0.30;;;24.90;99.90;;;;;;4968540;28;20057;-88
2023/09/10 08:42:01;;;;;;;0.30;0.30;;;24.90;99.90;;;;;;4970584;28;20531;-91
2023/09/10 08:44:29;;;;;;;0.52;0.52;;;25.00;99.90;;;;;;4990710;28;20038;-88
2023/09/10 08:47:00;;;;;;;0.30;0.30;;;25.20;99.90;;;;;;4991785;28;20050;-90
2023/09/10 08:49:29;;;;;;;0.30;0.30;;;25.30;99.90;;;;;;4974340;28;20057;-89
2023/09/10 08:51:56;;;;;;;0.30;0.30;;;25.00;99.90;;;;;;4991678;28;20552;-90
2023/09/10 08:54:21;;;;;;;0.40;0.40;;;25.40;99.90;;;;;;4991864;28;20558;-87
2023/09/10 08:56:51;;;;;;;0.30;0.30;;;25.60;99.90;;;;;;4992595;28;20044;-88
2023/09/10 08:59:17;;;;;;;0.30;0.30;;;25.70;99.90;;;;;;4970983;28;20049;-88
2023/09/10 09:01:44;;;;;;;0.30;0.30;;;25.70;99.90;;;;;;4972243;28;20108;-91
2023/09/10 09:04:12;;;;;;;0.30;0.30;;;25.90;99.90;;;;;;4994925;28;20411;-87
2023/09/10 09:06:43;;;;;;;0.45;0.40;;;25.60;99.90;;;;;;4990584;28;20392;-90
2023/09/10 09:09:11;;;;;;;0.30;0.30;;;25.80;99.90;;;;;;5005919;28;20068;-89
2023/09/10 09:11:39;;;;;;;0.30;0.30;;;25.80;99.90;;;;;;4992889;28;20537;-90
2023/09/10 09:14:08;;;;;;;0.30;0.30;;;25.70;99.90;;;;;;4977077;28;20930;-91
2023/09/10 09:16:34;;;;;;;0.40;0.40;;;25.80;99.90;;;;;;4976714;28;20483;-87
2023/09/10 09:19:08;;;;;;;0.30;0.30;;;25.80;99.90;;;;;;4991376;28;20061;-88
2023/09/10 09:21:35;;;;;;;0.30;0.30;;;25.80;99.90;;;;;;4990985;28;20053;-90
2023/09/10 09:24:01;;;;;;;0.30;0.30;;;26.20;99.90;;;;;;4978243;28;20037;-91
2023/09/10 09:26:28;;;;;;;0.38;0.38;;;25.60;99.90;;;;;;4976774;28;20453;-89
2023/09/10 09:28:57;;;;;;;0.30;0.30;;;26.10;99.90;;;;;;4992445;28;20132;-91
2023/09/10 09:31:24;;;;;;;0.40;0.40;;;26.20;99.90;;;;;;4994453;28;20041;-92
2023/09/10 09:33:50;;;;;;;0.30;0.30;;;25.80;99.90;;;;;;4980460;28;20052;-92
2023/09/10 09:36:16;;;;;;;0.43;0.43;;;26.20;99.90;;;;;;4975514;28;20045;-88
2023/09/10 09:38:44;;;;;;;0.30;0.30;;;26.60;99.90;;;;;;4974406;28;20405;-88
2023/09/10 09:41:10;;;;;;;0.38;0.38;;;26.70;99.90;;;;;;4975610;28;21093;-87
2023/09/10 09:43:36;;;;;;;0.38;0.38;;;26.60;99.90;;;;;;4998234;28;20042;-89
2023/09/10 09:46:03;;;;;;;0.30;0.30;;;26.40;99.90;;;;;;4992574;28;20041;-89
2023/09/10 09:48:29;;;;;;;0.30;0.30;;;26.50;99.90;;;;;;4990846;28;20045;-86
2023/09/10 09:50:56;;;;;;;0.30;0.30;;;27.00;99.90;;;;;;4989524;28;20038;-86
2023/09/10 09:53:27;;;;;;;0.30;0.30;;;27.10;99.90;;;;;;4996564;28;20525;-91
2023/09/10 09:56:03;;;;;;;0.30;0.30;;;26.80;99.90;;;;;;4997787;28;20561;-88
2023/09/10 09:58:37;;;;;;;0.30;0.30;;;26.80;99.90;;;;;;4993265;28;20049;-92
2023/09/10 10:01:06;;;;;;;0.60;0.60;;;27.20;99.90;;;;;;4974823;28;20042;-95
2023/09/10 10:03:33;;;;;;;0.30;0.30;;;27.30;99.90;;;;;;4994065;28;20058;-87
2023/09/10 10:05:58;;;;;;;0.30;0.30;;;27.20;99.90;;;;;;4985880;28;20052;-90
2023/09/10 10:08:26;;;;;;;0.30;0.30;;;27.50;99.90;;;;;;4990144;28;20054;-87
2023/09/10 10:10:55;;;;;;;0.38;0.38;;;27.50;99.90;;;;;;4992723;28;20037;-89
2023/09/10 10:13:24;;;;;;;0.30;0.30;;;27.50;99.90;;;;;;4990197;28;20037;-89
2023/09/10 10:15:52;;;;;;;0.30;0.30;;;27.70;99.90;;;;;;4974007;28;20050;-88
2023/09/10 10:18:19;;;;;;;0.30;0.30;;;27.70;99.90;;;;;;4989315;28;20431;-85
2023/09/10 10:20:47;;;;;;;0.50;0.50;;;27.90;99.90;;;;;;4973672;28;20056;-89
2023/09/10 10:23:16;;;;;;;0.30;0.30;;;28.10;99.90;;;;;;4998938;28;20073;-93
2023/09/10 10:25:43;;;;;;;0.30;0.30;;;28.20;99.90;;;;;;4973459;28;20144;-88
2023/09/10 10:28:09;;;;;;;0.20;0.20;;;28.20;99.90;;;;;;4973855;28;20522;-90
2023/09/10 10:30:50;;;;;;;0.40;0.40;;;28.20;99.90;;;;;;4991535;28;20038;-88
2023/09/10 10:33:22;;;;;;;0.30;0.30;;;28.40;99.90;;;;;;4980747;28;20139;-86
2023/09/10 10:36:07;;;;;;;0.30;0.30;;;28.70;99.90;;;;;;4982891;28;20058;-86
2023/09/10 10:38:36;;;;;;;0.20;0.20;;;28.70;99.90;;;;;;4987617;28;20038;-87
2023/09/10 10:41:19;;;;;;;0.30;0.30;;;28.70;99.90;;;;;;4985844;28;20072;-89
2023/09/10 10:43:54;;;;;;;0.30;0.30;;;28.40;99.90;;;;;;4969623;28;20084;-91
2023/09/10 10:46:25;;;;;;;0.30;0.30;;;28.60;99.90;;;;;;4974050;28;20048;-91
2023/09/10 10:48:52;;;;;;;0.22;0.22;;;28.40;99.90;;;;;;4974704;28;20136;-92
2023/09/10 10:51:18;;;;;;;0.30;0.30;;;28.50;99.90;;;;;;4980170;28;20654;-90
2023/09/10 10:53:48;;;;;;;0.30;0.30;;;28.70;99.90;;;;;;4986402;28;20058;-89
2023/09/10 10:56:15;;;;;;;0.30;0.30;;;28.90;99.90;;;;;;4975093;28;20060;-90
2023/09/10 10:58:42;;;;;;;0.28;0.28;;;29.20;99.90;;;;;;4976154;28;20081;-86
2023/09/10 11:01:11;;;;;;;0.30;0.30;;;29.00;99.90;;;;;;4978481;28;20057;-90
2023/09/10 11:03:36;;;;;;;0.47;0.47;;;29.10;99.90;;;;;;4996840;28;20112;-90
2023/09/10 11:06:07;;;;;;;0.32;0.32;;;28.80;99.90;;;;;;4981547;28;20791;-90
2023/09/10 11:08:35;;;;;;;0.30;0.30;;;29.20;99.90;;;;;;4975923;28;20045;-89
2023/09/10 11:11:03;;;;;;;0.30;0.30;;;29.10;99.90;;;;;;4970170;28;20091;-89
2023/09/10 11:13:32;;;;;;;0.30;0.30;;;29.30;99.90;;;;;;4972478;28;20485;-90
2023/09/10 11:16:04;;;;;;;0.25;0.25;;;29.40;99.90;;;;;;4977706;28;20099;-88
2023/09/10 11:18:36;;;;;;;0.30;0.30;;;29.40;99.90;;;;;;4977448;28;20060;-88
2023/09/10 11:21:08;;;;;;;0.20;0.20;;;29.50;99.90;;;;;;4989544;28;20046;-88
2023/09/10 11:23:35;;;;;;;0.30;0.30;;;29.30;99.90;;;;;;5008532;28;20048;-87
2023/09/10 11:26:13;;;;;;;0.35;0.35;;;29.50;99.90;;;;;;4989131;28;20045;-88
2023/09/10 11:28:39;;;;;;;0.28;0.28;;;29.50;99.90;;;;;;4990448;28;20058;-91
2023/09/10 11:31:46;;;;;;;0.30;0.30;;;29.70;99.90;;;;;;4988958;28;20045;-90
2023/09/10 11:34:15;;;;;;;0.20;0.20;;;29.40;99.90;;;;;;4977444;28;20084;-90
2023/09/10 11:36:59;;;;;;;0.30;0.30;;;29.40;99.90;;;;;;4973319;28;20041;-90
2023/09/10 11:39:25;;;;;;;0.30;0.30;;;29.70;99.90;;;;;;4986419;28;20041;-85
2023/09/10 11:41:55;;;;;;;0.20;0.20;;;29.90;99.90;;;;;;4986943;28;20050;-88
2023/09/10 11:44:21;;;;;;;0.30;0.30;;;29.90;99.90;;;;;;4990782;28;20060;-87
2023/09/10 11:46:47;;;;;;;0.30;0.30;;;29.90;99.90;;;;;;4984788;28;20046;-85
2023/09/10 11:49:13;;;;;;;0.20;0.20;;;29.80;99.90;;;;;;4987808;28;20054;-87
2023/09/10 11:51:44;;;;;;;0.20;0.20;;;29.30;99.90;;;;;;4984133;28;20230;-90
2023/09/10 11:54:16;;;;;;;0.30;0.30;;;29.10;99.90;;;;;;4979853;28;20049;-90
2023/09/10 11:56:42;;;;;;;0.22;0.22;;;29.70;99.90;;;;;;4967365;28;20108;-89
2023/09/10 11:59:08;;;;;;;0.30;0.30;;;29.90;99.90;;;;;;4987333;28;20081;-89
2023/09/10 12:01:34;;;;;;;0.30;0.30;;;30.10;99.90;;;;;;4973369;28;20517;-87
2023/09/10 12:04:01;;;;;;;0.38;0.38;;;30.10;99.90;;;;;;4996149;28;20061;-90
2023/09/10 12:06:27;;;;;;;0.30;0.30;;;30.30;99.90;;;;;;4974088;28;20042;-87
2023/09/10 12:08:54;;;;;;;0.30;0.30;;;30.00;99.90;;;;;;4988346;28;20046;-89
2023/09/10 12:11:21;;;;;;;0.30;0.30;;;29.90;99.90;;;;;;4990847;28;20044;-88
2023/09/10 12:13:47;;;;;;;0.28;0.28;;;30.00;99.90;;;;;;4989398;28;20151;-88
2023/09/10 12:16:13;;;;;;;0.30;0.30;;;30.10;99.90;;;;;;4992301;28;20096;-86
2023/09/10 12:18:40;;;;;;;0.30;0.30;;;30.20;99.90;;;;;;4988866;28;20038;-87
2023/09/10 12:21:06;;;;;;;0.30;0.30;;;30.00;99.90;;;;;;4997384;28;20053;-89
2023/09/10 12:23:32;;;;;;;0.30;0.30;;;30.10;99.90;;;;;;4992768;28;20046;-90
2023/09/10 12:26:04;;;;;;;0.30;0.30;;;29.60;99.90;;;;;;4993262;28;20052;-90
2023/09/10 12:28:31;;;;;;;0.30;0.30;;;30.00;99.90;;;;;;4977484;28;20042;-90
2023/09/10 12:31:00;;;;;;;0.20;0.20;;;30.50;99.90;;;;;;4979181;28;20076;-96
2023/09/10 12:33:26;;;;;;;0.30;0.30;;;30.50;99.90;;;;;;4992620;28;20624;-92
2023/09/10 12:35:52;;;;;;;0.32;0.32;;;30.10;99.90;;;;;;4997700;28;20128;-89
2023/09/10 12:38:19;;;;;;;0.30;0.30;;;29.40;99.90;;;;;;4975425;28;20841;-86
2023/09/10 12:40:58;;;;;;;0.30;0.30;;;30.10;99.90;;;;;;4974157;28;20065;-88
2023/09/10 12:43:24;;;;;;;0.80;0.80;;;29.80;99.90;;;;;;4995952;28;20038;-88
2023/09/10 12:45:53;;;;;;;0.30;0.30;;;29.90;99.90;;;;;;4992923;28;20046;-91
2023/09/10 12:48:22;;;;;;;0.30;0.30;;;30.00;99.90;;;;;;4974919;28;20062;-89
2023/09/10 12:50:55;;;;;;;0.30;0.30;;;30.10;99.90;;;;;;4979924;28;20083;-88
2023/09/10 12:53:21;;;;;;;0.30;0.30;;;30.30;99.90;;;;;;4998000;28;20041;-88
2023/09/10 12:55:53;;;;;;;0.30;0.30;;;30.40;99.90;;;;;;4978455;28;20083;-88